Latest Weather Observations for Pallamana

IDS60801

Issued at 12:31 pm CST Friday 26 August 2016 (issued every 30 minutes, with the page automatically refreshed every 10 minutes)

About weather observations | Map of weather stations | Latest weather observations for SA | Other Formats
Station Details ID: 024584 Name: PALLAMANA AERODROME Lat: -35.06 Lon: 139.23 Height: 45.0 m
Data from the previous 72 hours. | See also: Recent months at Pallamana
Date/Time
CST
Temp
°C
App
Temp
°C
Dew
Point
°C
Rel
Hum
%
Delta-T
°C
Wind Press
QNH
hPa
Press
MSL
hPa
Rain since
9am
mm
Dir  Spd
km/h
Gust
km/h
Spd
kts
Gust
kts
26/12:30pm 13.2 9.7 3.3 51 4.4 WSW 11 17 6 9 1024.3 1024.4 0.0
26/12:00pm 13.1 9.3 3.7 53 4.2 SW 13 20 7 11 1024.8 1024.9 0.0
26/11:30am 13.1 9.4 4.6 56 3.9 SW 13 19 7 10 1025.0 1025.1 0.0
26/11:00am 12.5 9.2 4.3 57 3.7 WSW 11 15 6 8 1025.3 1025.4 0.0
26/10:30am 12.4 8.3 4.5 58 3.6 WSW 15 22 8 12 1025.4 1025.5 0.0
26/10:00am 12.1 7.3 4.6 60 3.4 WSW 19 22 10 12 1025.4 1025.5 0.0
26/09:30am 11.6 7.3 5.3 65 2.9 WSW 17 22 9 12 1025.5 1025.6 0.0
26/09:00am 10.9 7.1 5.9 71 2.3 W 15 19 8 10 1025.4 1025.5 0.0
26/08:30am 10.0 6.2 5.6 74 2.0 WNW 15 19 8 10 1025.3 1025.4 0.0
26/08:00am 9.1 4.8 5.3 77 1.7 W 17 20 9 11 1025.0 1025.1 0.0
26/07:30am 8.3 4.3 5.1 80 1.4 W 15 19 8 10 1025.0 1025.1 0.0
26/07:00am 7.7 3.7 5.0 83 1.2 W 15 17 8 9 1024.7 1024.8 0.0
26/06:30am 7.4 2.9 4.4 81 1.3 W 17 20 9 11 1024.4 1024.5 0.0
26/06:00am 7.0 2.9 4.2 82 1.2 W 15 19 8 10 1024.0 1024.1 0.0
26/05:30am 6.9 2.4 4.3 83 1.1 WNW 17 20 9 11 1023.6 1023.7 0.0
26/05:00am 6.7 2.2 4.4 85 1.0 W 17 20 9 11 1023.4 1023.5 0.0
26/04:30am 6.9 2.6 5.1 88 0.8 W 17 19 9 10 1023.2 1023.3 0.0
26/04:00am 7.2 3.3 5.2 87 0.9 W 15 17 8 9 1023.2 1023.3 0.0
26/03:30am 7.5 3.9 5.2 85 1.0 W 13 17 7 9 1023.1 1023.2 0.0
26/03:00am 7.0 2.6 4.5 84 1.1 W 17 20 9 11 1023.1 1023.2 0.0
26/02:30am 7.1 3.0 4.1 81 1.3 W 15 19 8 10 1023.2 1023.3 0.0
26/02:00am 6.7 2.2 4.4 85 1.0 W 17 19 9 10 1023.4 1023.5 0.0
26/01:30am 6.6 2.9 4.3 85 1.0 W 13 17 7 9 1023.3 1023.4 0.0
26/01:00am 6.9 3.2 4.6 85 1.0 W 13 17 7 9 1023.3 1023.4 0.0
26/12:30am 6.9 2.9 4.8 86 0.9 W 15 17 8 9 1023.2 1023.3 0.0
26/12:00am 7.1 3.1 5.1 87 0.9 W 15 17 8 9 1023.2 1023.3 0.0
 
Date/Time
CST
Temp
°C
App
Temp
°C
Dew
Point
°C
Rel
Hum
%
Delta-T
°C
Wind Press
QNH
hPa
Press
MSL
hPa
Rain since
9am
mm
Dir  Spd
km/h
Gust
km/h
Spd
kts
Gust
kts
25/11:30pm 7.4 3.6 5.6 88 0.8 WNW 15 19 8 10 1023.1 1023.2 0.0
25/11:00pm 7.7 4.4 6.2 90 0.7 WNW 13 17 7 9 1023.2 1023.3 0.0
25/10:30pm 8.0 4.7 6.5 90 0.7 W 13 15 7 8 1023.2 1023.3 0.0
25/10:00pm 8.3 4.8 7.0 91 0.6 W 15 19 8 10 1023.2 1023.3 0.0
25/09:30pm 8.4 4.8 6.9 90 0.7 W 15 17 8 9 1023.1 1023.2 0.0
25/09:00pm 9.3 6.2 7.4 88 0.9 W 13 17 7 9 1023.0 1023.1 0.0
25/08:30pm 9.4 4.9 7.1 85 1.1 WSW 20 24 11 13 1023.0 1023.1 0.0
25/08:00pm 8.1 4.0 6.1 87 0.9 WSW 17 20 9 11 1022.7 1022.8 0.0
25/07:30pm 7.6 4.0 5.1 84 1.1 WSW 13 15 7 8 1022.5 1022.6 0.0
25/07:00pm 8.4 4.5 5.3 81 1.4 SW 15 17 8 9 1022.3 1022.4 0.0
25/06:30pm 10.0 6.2 5.6 74 2.0 SW 15 17 8 9 1021.8 1021.9 0.0
25/06:00pm 10.0 6.2 5.6 74 2.0 SW 15 19 8 10 1021.6 1021.7 0.0
25/05:30pm 10.8 6.5 5.3 69 2.5 SW 17 22 9 12 1021.2 1021.2 0.0
25/05:00pm 11.5 5.9 5.4 66 2.8 SSW 24 30 13 16 1020.8 1020.8 0.0
25/04:30pm 12.6 7.8 5.5 62 3.3 SSW 20 28 11 15 1020.5 1020.5 0.0
25/04:00pm 13.0 8.1 5.3 59 3.6 SSW 20 32 11 17 1020.2 1020.2 0.0
25/03:30pm 12.4 7.0 6.5 67 2.8 SSW 24 35 13 19 1020.1 1020.1 0.0
25/03:00pm 13.5 8.5 4.6 55 4.1 SW 20 26 11 14 1019.8 1019.8 0.0
25/02:30pm 13.5 9.1 4.6 55 4.1 SSW 17 24 9 13 1019.7 1019.7 0.0
25/02:00pm 13.9 9.4 4.0 51 4.5 SSW 17 26 9 14 1019.7 1019.7 0.0
25/01:30pm 14.1 9.2 4.0 50 4.6 SSW 19 24 10 13 1019.8 1019.8 0.0
25/01:00pm 13.4 8.8 3.6 51 4.4 SSW 17 24 9 13 1020.0 1020.0 0.0
25/12:30pm 14.4 10.0 4.7 52 4.5 SSW 17 24 9 13 1020.3 1020.3 0.0
25/12:00pm 13.9 9.8 4.3 52 4.4 S 15 22 8 12 1020.6 1020.6 0.0
25/11:30am 13.6 9.6 5.0 56 4.0 S 15 20 8 11 1020.6 1020.6 0.0
25/11:00am 13.4 9.7 4.7 55 4.0 S 13 20 7 11 1020.7 1020.7 0.0
25/10:30am 12.4 9.6 5.3 62 3.3 SW 9 13 5 7 1020.9 1020.9 0.0
25/10:00am 12.1 9.5 4.4 59 3.5 NNE 7 11 4 6 1020.9 1020.9 0.0
25/09:30am 11.1 8.5 4.4 63 3.0 NNW 7 9 4 5 1020.7 1020.7 0.0
25/09:00am 9.7 6.7 4.3 69 2.4 NNW 9 11 5 6 1020.5 1020.5 0.2
25/08:30am 8.2 5.8 5.3 82 1.3 WNW 7 11 4 6 1020.4 1020.4 0.2
25/08:00am 4.7 3.4 4.0 95 0.3 CALM 0 0 0 0 1020.3 1020.3 0.2
25/07:30am 0.9 -1.8 0.6 98 0.1 W 4 6 2 3 1019.9 1019.9 0.2
25/07:00am -0.4 - - - - CALM 0 0 0 0 1019.6 1019.6 0.2
25/06:30am -0.3 - - - - CALM 0 0 0 0 1019.4 1019.4 0.2
25/06:00am -0.9 - - - - CALM 0 0 0 0 1019.0 1019.0 0.2
25/05:30am 0.5 - - - - CALM 0 0 0 0 1018.6 1018.6 0.2
25/05:00am -0.2 - - - - WNW 9 11 5 6 1018.5 1018.5 0.2
25/04:30am 0.0 - - - - W 6 7 3 4 1018.2 1018.2 0.2
25/04:00am -0.7 - - - - W 6 9 3 5 1018.0 1018.0 0.2
25/03:30am 0.1 - - - - W 9 11 5 6 1018.0 1018.0 0.2
25/03:00am 0.4 - - - - W 7 11 4 6 1018.0 1018.0 0.2
25/02:30am 1.3 -2.5 -0.4 88 0.6 W 9 11 5 6 1018.0 1018.0 0.2
25/02:00am 2.7 -0.8 1.4 91 0.5 WSW 9 13 5 7 1017.9 1017.9 0.2
25/01:30am 3.2 -1.3 1.9 91 0.5 SW 15 17 8 9 1017.9 1017.9 0.2
25/01:00am 2.3 -0.6 1.5 94 0.3 SW 6 7 3 4 1018.1 1018.1 0.2
25/12:30am 3.2 0.2 1.7 90 0.6 SSW 7 9 4 5 1018.0 1018.0 0.2
25/12:00am 2.9 0.0 1.3 89 0.6 W 6 7 3 4 1018.0 1018.0 0.2
 
Date/Time
CST
Temp
°C
App
Temp
°C
Dew
Point
°C
Rel
Hum
%
Delta-T
°C
Wind Press
QNH
hPa
Press
MSL
hPa
Rain since
9am
mm
Dir  Spd
km/h
Gust
km/h
Spd
kts
Gust
kts
24/11:30pm 3.0 0.8 1.2 88 0.7 WNW 2 7 1 4 1018.0 1018.0 0.2
24/11:00pm 3.1 1.0 1.6 90 0.6 ENE 2 7 1 4 1018.0 1018.0 0.2
24/10:30pm 4.8 0.8 2.8 87 0.8 SW 13 17 7 9 1018.0 1018.0 0.2
24/10:00pm 4.5 0.8 2.5 87 0.8 SW 11 15 6 8 1018.0 1018.0 0.2
24/09:30pm 4.7 1.8 2.7 87 0.8 WSW 7 11 4 6 1018.0 1018.0 0.2
24/09:00pm 5.7 1.4 3.3 84 1.0 SW 15 17 8 9 1017.8 1017.8 0.2
24/08:30pm 4.7 1.8 2.5 86 0.9 SW 7 11 4 6 1017.5 1017.5 0.2
24/08:00pm 5.6 1.2 2.9 83 1.1 SW 15 15 8 8 1017.3 1017.3 0.2
24/07:30pm 7.3 2.7 3.5 77 1.6 SSW 17 20 9 11 1017.1 1017.1 0.2
24/07:00pm 7.8 3.1 3.3 73 1.9 SSW 17 19 9 10 1016.9 1016.9 0.2
24/06:30pm 10.4 5.7 3.0 60 3.2 SSW 17 20 9 11 1016.4 1016.4 0.2
24/06:00pm 11.1 6.7 2.8 56 3.6 SSW 15 20 8 11 1016.1 1016.1 0.2
24/05:30pm 11.9 8.2 4.7 61 3.3 SSW 13 17 7 9 1015.8 1015.8 0.2
24/05:00pm 12.5 8.8 4.6 58 3.6 SSW 13 17 7 9 1015.5 1015.5 0.2
24/04:30pm 13.1 9.3 4.1 54 4.1 SSW 13 15 7 8 1015.2 1015.2 0.2
24/04:00pm 13.4 8.8 3.9 52 4.3 S 17 20 9 11 1014.9 1014.9 0.2
24/03:30pm 13.9 9.0 4.1 51 4.5 S 19 26 10 14 1014.6 1014.6 0.2
24/03:00pm 15.1 10.4 5.2 51 4.7 S 19 26 10 14 1014.5 1014.5 0.2
24/02:30pm 15.4 12.0 6.1 54 4.5 SSW 13 20 7 11 1014.6 1014.6 0.2
24/02:00pm 15.0 11.4 6.6 57 4.1 SSE 15 26 8 14 1014.6 1014.6 0.2
24/01:30pm 15.1 11.8 6.4 56 4.2 SSE 13 19 7 10 1015.0 1015.0 0.2
24/01:00pm 15.0 12.0 6.1 55 4.3 SE 11 19 6 10 1015.4 1015.4 0.2
24/12:30pm 14.5 12.0 6.4 58 3.9 SE 9 15 5 8 1015.8 1015.8 0.2
24/12:00pm 14.0 11.7 7.3 64 3.3 SSE 9 15 5 8 1016.1 1016.1 0.0
24/11:30am 13.2 11.2 7.2 67 2.9 SSE 7 11 4 6 1016.4 1016.4 0.0
24/11:00am 12.5 10.1 7.1 69 2.6 SE 9 13 5 7 1016.7 1016.7 0.0
24/10:30am 11.5 9.1 6.9 73 2.2 S 9 17 5 9 1016.8 1016.8 0.0
24/10:00am 10.4 7.5 6.6 77 1.8 SE 11 15 6 8 1016.9 1016.9 0.0
24/09:30am 9.2 6.2 6.2 81 1.4 SSE 11 15 6 8 1016.9 1016.9 0.0
24/09:00am 8.1 5.2 6.4 89 0.8 S 11 15 6 8 1017.1 1017.1 0.0
24/08:30am 7.0 4.8 6.1 94 0.4 SSE 7 11 4 6 1017.3 1017.3 0.0
24/08:00am 5.5 4.3 4.8 95 0.3 CALM 0 0 0 0 1017.0 1017.0 0.0
24/07:30am 3.3 1.7 2.3 93 0.4 CALM 0 0 0 0 1016.8 1016.8 0.0
24/07:00am 2.1 0.4 2.1 100 0.0 CALM 0 0 0 0 1016.6 1016.6 0.0
24/06:30am 2.1 0.4 1.8 98 0.1 CALM 0 0 0 0 1016.5 1016.5 0.0
24/06:00am 1.3 -1.7 1.0 98 0.1 SSW 6 9 3 5 1016.2 1016.2 0.0
24/05:30am 1.3 -1.0 0.5 94 0.3 SW 2 6 1 3 1016.0 1016.0 0.0
24/05:00am 1.6 -1.0 1.1 96 0.2 WSW 4 7 2 4 1015.9 1015.9 0.0
24/04:30am 1.2 -1.1 0.4 94 0.3 WSW 2 6 1 3 1015.9 1015.9 0.0
24/04:00am 2.3 0.1 1.0 91 0.5 WSW 2 6 1 3 1015.7 1015.7 0.0
24/03:30am 2.8 0.6 1.2 89 0.6 SW 2 6 1 3 1015.6 1015.6 0.0
24/03:00am 4.6 1.4 2.9 89 0.7 SW 9 13 5 7 1016.0 1016.0 0.0
24/02:30am 5.6 1.4 3.7 87 0.8 W 15 19 8 10 1016.0 1016.0 0.0
24/02:00am 4.1 2.2 2.6 90 0.6 WSW 2 7 1 4 1016.0 1016.0 0.0
24/01:30am 6.1 2.4 4.2 88 0.8 WSW 13 15 7 8 1016.2 1016.2 0.0
24/01:00am 6.5 3.2 4.7 88 0.8 WSW 11 13 6 7 1016.6 1016.6 0.0
24/12:30am 6.4 3.5 4.6 88 0.8 WSW 9 13 5 7 1016.6 1016.6 0.0
24/12:00am 4.0 0.8 2.8 92 0.5 W 9 11 5 6 1016.8 1016.8 0.0
 
Date/Time
CST
Temp
°C
App
Temp
°C
Dew
Point
°C
Rel
Hum
%
Delta-T
°C
Wind Press
QNH
hPa
Press
MSL
hPa
Rain since
9am
mm
Dir  Spd
km/h
Gust
km/h
Spd
kts
Gust
kts
23/11:30pm 6.1 2.8 4.5 89 0.7 WSW 11 13 6 7 1016.9 1016.9 0.0
23/11:00pm 5.2 2.2 4.0 92 0.5 WSW 9 11 5 6 1017.1 1017.1 0.0
23/10:30pm 6.5 3.3 5.1 91 0.6 SW 11 13 6 7 1017.4 1017.4 0.0
23/10:00pm 5.8 3.5 4.9 94 0.4 SSW 6 11 3 6 1017.4 1017.4 0.0
23/09:30pm 6.3 3.2 5.4 94 0.4 WSW 11 13 6 7 1017.3 1017.3 0.0
23/09:00pm 7.3 3.6 6.4 94 0.4 WSW 15 17 8 9 1017.2 1017.2 0.0
23/08:30pm 7.7 4.4 6.6 93 0.5 WSW 13 17 7 9 1017.1 1017.1 0.0
23/08:00pm 8.2 4.6 6.9 91 0.6 WSW 15 17 8 9 1016.8 1016.8 0.0
23/07:30pm 9.1 5.4 7.8 92 0.6 SW 17 20 9 11 1016.6 1016.6 0.0
23/07:00pm 8.7 5.2 7.4 91 0.6 SW 15 17 8 9 1016.6 1016.6 0.0
23/06:30pm 8.5 5.3 6.8 89 0.8 SW 13 15 7 8 1016.5 1016.5 0.0
23/06:00pm 9.4 5.3 6.4 81 1.4 SSW 17 20 9 11 1016.1 1016.1 0.0
23/05:30pm 11.2 8.4 6.8 74 2.1 SSE 11 13 6 7 1015.9 1015.9 0.0
23/05:00pm 12.9 9.4 7.4 69 2.7 SE 15 20 8 11 1015.8 1015.8 0.0
23/04:30pm 13.9 9.6 7.1 63 3.3 SE 19 22 10 12 1015.7 1015.7 0.0
23/04:00pm 14.0 10.5 7.0 62 3.4 SE 15 20 8 11 1015.6 1015.6 0.0
23/03:30pm 14.6 11.4 7.0 60 3.7 SE 13 22 7 12 1015.6 1015.6 0.0
23/03:00pm 14.9 11.8 5.7 54 4.4 ESE 11 15 6 8 1015.8 1015.8 0.0
23/02:30pm 15.6 13.6 7.1 57 4.2 ENE 7 13 4 7 1015.9 1015.9 0.0
23/02:00pm 14.7 12.7 6.9 59 3.8 ESE 7 11 4 6 1016.0 1016.0 0.0
23/01:30pm 14.3 11.9 7.1 62 3.5 E 9 13 5 7 1016.1 1016.1 0.0
23/01:00pm 13.9 12.2 8.5 70 2.7 S 7 13 4 7 1016.3 1016.3 0.0

Other Formats:

Comma delimited format used in spreadsheet applications
http://www.bom.gov.au/fwo/IDS60801/IDS60801.95818.axf

JavaScript Object Notation format (JSON) in row-major order
http://www.bom.gov.au/fwo/IDS60801/IDS60801.95818.json